Adak Island, Alaska
Current Conditions -  °F | °C
As of 6:36 PM on Saturday 22 Nov 2014 (Local Time) from PADK Reporting Station
Scattered Clouds Scattered Clouds  
Wind Chill: 28°   Ceiling: Unl
Heat Index: 37°   Visibility: 10mi
Dew Point: 27°   Wind: 16mph
Humidity: 65%   Direction: 330°NNW
Pressure: 29.59"   Gusts: 26mph
Location:  51.88°N, 176.65°W
Report Text: PADK 230336Z AUTO 33014G23KT 10SM FEW030 SCT039 03/M03 A2959 RMK AO1
Loading
Personal Weather Stations






























Interactive Weather Map New forecast layout! Learn more

10-Day Weather Forecast

Advertisements
Track Severe Weather on mobile